sensor_id;sensor_type;location;lat;lon;timestamp;pressure;altitude;pressure_sealevel;temperature;humidity
69982;BME280;57319;56.274;43.980;2022-11-23T08:07:12;98911.72;;;-1.66;89.33
69982;BME280;57319;56.274;43.980;2022-11-23T08:09:38;98907.41;;;-1.72;89.60
69982;BME280;57319;56.274;43.980;2022-11-23T08:12:04;98903.47;;;-1.61;89.57
69982;BME280;57319;56.274;43.980;2022-11-23T08:14:30;98912.75;;;-1.58;89.42
69982;BME280;57319;56.274;43.980;2022-11-23T08:16:56;98906.06;;;-1.58;89.11
69982;BME280;57319;56.274;43.980;2022-11-23T08:19:21;98904.31;;;-1.60;89.42
69982;BME280;57319;56.274;43.980;2022-11-23T08:21:47;98901.75;;;-1.62;89.56
69982;BME280;57319;56.274;43.980;2022-11-23T08:24:13;98894.25;;;-1.59;89.15
69982;BME280;57319;56.274;43.980;2022-11-23T08:26:38;98894.25;;;-1.59;89.49
69982;BME280;57319;56.274;43.980;2022-11-23T08:29:04;98894.44;;;-1.51;89.30
69982;BME280;57319;56.274;43.980;2022-11-23T08:31:30;98897.84;;;-1.49;88.88
69982;BME280;57319;56.274;43.980;2022-11-23T08:33:56;98899.53;;;-1.48;88.71
69982;BME280;57319;56.274;43.980;2022-11-23T08:36:22;98895.28;;;-1.50;88.85
69982;BME280;57319;56.274;43.980;2022-11-23T08:38:47;98900.22;;;-1.55;88.65
69982;BME280;57319;56.274;43.980;2022-11-23T08:41:16;98895.00;;;-1.63;88.75
69982;BME280;57319;56.274;43.980;2022-11-23T08:43:46;98898.28;;;-1.67;89.42
69982;BME280;57319;56.274;43.980;2022-11-23T08:46:11;98902.53;;;-1.64;89.68
69982;BME280;57319;56.274;43.980;2022-11-23T08:48:37;98904.25;;;-1.63;89.28
69982;BME280;57319;56.274;43.980;2022-11-23T08:51:03;98898.44;;;-1.61;89.30
69982;BME280;57319;56.274;43.980;2022-11-23T08:53:29;98901.78;;;-1.60;89.19
69982;BME280;57319;56.274;43.980;2022-11-23T08:55:54;98889.34;;;-1.52;89.30
69982;BME280;57319;56.274;43.980;2022-11-23T08:58:20;98888.44;;;-1.56;89.31
69982;BME280;57319;56.274;43.980;2022-11-23T09:00:46;98892.69;;;-1.54;89.21
69982;BME280;57319;56.274;43.980;2022-11-23T09:03:11;98895.19;;;-1.55;89.20
69982;BME280;57319;56.274;43.980;2022-11-23T09:05:37;98891.75;;;-1.57;89.37
69982;BME280;57319;56.274;43.980;2022-11-23T09:08:04;98891.72;;;-1.59;89.26
69982;BME280;57319;56.274;43.980;2022-11-23T09:10:29;98899.44;;;-1.52;89.35
69982;BME280;57319;56.274;43.980;2022-11-23T09:12:55;98882.53;;;-1.57;89.23
69982;BME280;57319;56.274;43.980;2022-11-23T09:15:21;98889.25;;;-1.57;89.34
69982;BME280;57319;56.274;43.980;2022-11-23T09:17:47;98883.50;;;-1.50;89.06
69982;BME280;57319;56.274;43.980;2022-11-23T09:20:12;98881.91;;;-1.46;89.06
69982;BME280;57319;56.274;43.980;2022-11-23T09:22:38;98882.69;;;-1.49;88.66
69982;BME280;57319;56.274;43.980;2022-11-23T09:25:04;98873.38;;;-1.51;89.02
69982;BME280;57319;56.274;43.980;2022-11-23T09:27:31;98875.94;;;-1.50;89.03
69982;BME280;57319;56.274;43.980;2022-11-23T09:29:57;98874.13;;;-1.56;89.13
69982;BME280;57319;56.274;43.980;2022-11-23T09:32:22;98877.56;;;-1.54;89.28
69982;BME280;57319;56.274;43.980;2022-11-23T09:34:48;98867.47;;;-1.52;89.45
69982;BME280;57319;56.274;43.980;2022-11-23T09:37:14;98866.56;;;-1.56;89.68
69982;BME280;57319;56.274;43.980;2022-11-23T09:39:40;98868.41;;;-1.48;89.16
69982;BME280;57319;56.274;43.980;2022-11-23T09:42:33;98858.31;;;-1.48;88.79
69982;BME280;57319;56.274;43.980;2022-11-23T09:45:19;98852.50;;;-1.44;88.83
69982;BME280;57319;56.274;43.980;2022-11-23T09:50:48;98861.00;;;-1.39;88.48
69982;BME280;57319;56.274;43.980;2022-11-23T09:53:22;98857.69;;;-1.38;88.19
69982;BME280;57319;56.274;43.980;2022-11-23T09:55:55;98863.63;;;-1.36;88.00
69982;BME280;57319;56.274;43.980;2022-11-23T09:58:25;98852.75;;;-1.32;87.84
69982;BME280;57319;56.274;43.980;2022-11-23T10:01:03;98854.38;;;-1.34;87.55
69982;BME280;57319;56.274;43.980;2022-11-23T10:03:36;98854.22;;;-1.42;87.74
69982;BME280;57319;56.274;43.980;2022-11-23T10:08:58;98851.00;;;-1.36;87.05
69982;BME280;57319;56.274;43.980;2022-11-23T10:11:30;98848.34;;;-1.42;86.79
69982;BME280;57319;56.274;43.980;2022-11-23T10:19:19;98836.19;;;-1.60;86.85
69982;BME280;57319;56.274;43.980;2022-11-23T10:22:08;98839.44;;;-1.66;87.18
69982;BME280;57319;56.274;43.980;2022-11-23T10:24:45;98839.44;;;-1.66;87.13
69982;BME280;57319;56.274;43.980;2022-11-23T10:27:19;98838.50;;;-1.69;87.12
69982;BME280;57319;56.274;43.980;2022-11-23T10:29:45;98828.19;;;-1.79;87.10
69982;BME280;57319;56.274;43.980;2022-11-23T10:32:46;98839.72;;;-1.90;86.97
69982;BME280;57319;56.274;43.980;2022-11-23T10:35:17;98833.91;;;-1.88;87.28
69982;BME280;57319;56.274;43.980;2022-11-23T10:37:45;98828.59;;;-2.00;87.46
69982;BME280;57319;56.274;43.980;2022-11-23T10:40:20;98826.06;;;-2.00;87.63
69982;BME280;57319;56.274;43.980;2022-11-23T10:42:51;98828.34;;;-2.09;87.57
69982;BME280;57319;56.274;43.980;2022-11-23T10:45:24;98820.63;;;-2.17;87.69
69982;BME280;57319;56.274;43.980;2022-11-23T10:47:55;98825.56;;;-2.22;88.01
69982;BME280;57319;56.274;43.980;2022-11-23T10:50:29;98832.97;;;-2.28;87.95
69982;BME280;57319;56.274;43.980;2022-11-23T10:53:19;98834.00;;;-2.21;87.93
69982;BME280;57319;56.274;43.980;2022-11-23T10:55:56;98828.94;;;-2.21;87.96
69982;BME280;57319;56.274;43.980;2022-11-23T10:58:29;98831.25;;;-2.30;88.05
69982;BME280;57319;56.274;43.980;2022-11-23T11:01:04;98831.19;;;-2.33;87.95
69982;BME280;57319;56.274;43.980;2022-11-23T11:03:31;98842.09;;;-2.33;87.99
69982;BME280;57319;56.274;43.980;2022-11-23T11:05:57;98842.91;;;-2.34;88.17
69982;BME280;57319;56.274;43.980;2022-11-23T11:08:34;98852.25;;;-2.30;88.00
69982;BME280;57319;56.274;43.980;2022-11-23T11:11:10;98859.91;;;-2.27;88.03
69982;BME280;57319;56.274;43.980;2022-11-23T11:13:46;98862.25;;;-2.33;87.92
69982;BME280;57319;56.274;43.980;2022-11-23T11:18:44;98857.19;;;-2.34;87.67
69982;BME280;57319;56.274;43.980;2022-11-23T11:21:22;98863.09;;;-2.32;87.75
69982;BME280;57319;56.274;43.980;2022-11-23T11:24:04;98860.66;;;-2.31;87.78
69982;BME280;57319;56.274;43.980;2022-11-23T11:26:32;98868.28;;;-2.28;87.20
69982;BME280;57319;56.274;43.980;2022-11-23T11:29:03;98870.75;;;-2.29;87.29
69982;BME280;57319;56.274;43.980;2022-11-23T11:36:42;98879.09;;;-2.32;87.26
69982;BME280;57319;56.274;43.980;2022-11-23T11:39:15;98875.91;;;-2.25;87.46
69982;BME280;57319;56.274;43.980;2022-11-23T11:41:46;98881.06;;;-2.20;87.34
69982;BME280;57319;56.274;43.980;2022-11-23T11:44:20;98874.44;;;-2.16;86.98
69982;BME280;57319;56.274;43.980;2022-11-23T11:46:55;98874.28;;;-2.23;86.65
69982;BME280;57319;56.274;43.980;2022-11-23T11:49:32;98875.16;;;-2.20;86.81
69982;BME280;57319;56.274;43.980;2022-11-23T11:52:34;98876.53;;;-2.33;86.24
69982;BME280;57319;56.274;43.980;2022-11-23T11:57:39;98877.59;;;-2.25;86.10
69982;BME280;57319;56.274;43.980;2022-11-23T12:00:18;98879.25;;;-2.26;85.97
69982;BME280;57319;56.274;43.980;2022-11-23T12:02:54;98878.31;;;-2.29;85.83
69982;BME280;57319;56.274;43.980;2022-11-23T12:05:25;98881.69;;;-2.29;85.79
69982;BME280;57319;56.274;43.980;2022-11-23T12:07:58;98880.88;;;-2.28;85.60
69982;BME280;57319;56.274;43.980;2022-11-23T12:10:46;98883.56;;;-2.20;85.66
69982;BME280;57319;56.274;43.980;2022-11-23T12:13:19;98881.84;;;-2.23;85.11
69982;BME280;57319;56.274;43.980;2022-11-23T12:19:39;98884.31;;;-2.24;85.27
69982;BME280;57319;56.274;43.980;2022-11-23T12:38:11;98888.59;;;-2.55;85.63
69982;BME280;57319;56.274;43.980;2022-11-23T12:43:23;98894.38;;;-2.59;85.73
69982;BME280;57319;56.274;43.980;2022-11-23T12:54:01;98892.41;;;-2.69;85.14
69982;BME280;57319;56.274;43.980;2022-11-23T12:57:03;98897.41;;;-2.71;85.75
69982;BME280;57319;56.274;43.980;2022-11-23T13:00:06;98898.81;;;-2.81;85.74
69982;BME280;57319;56.274;43.980;2022-11-23T13:13:34;98898.72;;;-2.85;85.43
69982;BME280;57319;56.274;43.980;2022-11-23T13:19:06;98906.91;;;-2.93;85.85
69982;BME280;57319;56.274;43.980;2022-11-23T13:21:40;98897.56;;;-2.97;85.52
69982;BME280;57319;56.274;43.980;2022-11-23T13:24:25;98906.19;;;-2.88;85.37
69982;BME280;57319;56.274;43.980;2022-11-23T13:42:55;98898.19;;;-3.04;85.78
69982;BME280;57319;56.274;43.980;2022-11-23T13:45:27;98905.75;;;-3.04;85.57
69982;BME280;57319;56.274;43.980;2022-11-23T13:50:57;98904.66;;;-3.12;85.44
69982;BME280;57319;56.274;43.980;2022-11-23T13:53:36;98904.66;;;-3.12;85.47
69982;BME280;57319;56.274;43.980;2022-11-23T13:56:27;98904.50;;;-3.18;85.34
69982;BME280;57319;56.274;43.980;2022-11-23T13:59:18;98907.75;;;-3.22;85.23
69982;BME280;57319;56.274;43.980;2022-11-23T14:04:33;98902.63;;;-3.26;85.53
69982;BME280;57319;56.274;43.980;2022-11-23T14:10:30;98891.63;;;-3.29;86.07
69982;BME280;57319;56.274;43.980;2022-11-23T14:12:35;98896.88;;;-3.21;85.34
69982;BME280;57319;56.274;43.980;2022-11-23T14:15:17;98898.44;;;-3.25;85.27
69982;BME280;57319;56.274;43.980;2022-11-23T14:20:44;98896.53;;;-3.34;85.34
69982;BME280;57319;56.274;43.980;2022-11-23T14:26:24;98904.97;;;-3.32;85.43
69982;BME280;57319;56.274;43.980;2022-11-23T14:43:17;98905.59;;;-3.39;85.02
69982;BME280;57319;56.274;43.980;2022-11-23T14:45:45;98904.63;;;-3.43;85.04
69982;BME280;57319;56.274;43.980;2022-11-23T14:48:30;98906.41;;;-3.40;85.01
69982;BME280;57319;56.274;43.980;2022-11-23T14:51:04;98907.91;;;-3.45;85.29
69982;BME280;57319;56.274;43.980;2022-11-23T14:53:38;98917.25;;;-3.41;84.96
69982;BME280;57319;56.274;43.980;2022-11-23T14:56:04;98914.78;;;-3.39;84.75
69982;BME280;57319;56.274;43.980;2022-11-23T14:58:31;98918.97;;;-3.40;84.74
69982;BME280;57319;56.274;43.980;2022-11-23T15:00:59;98922.28;;;-3.41;84.73
69982;BME280;57319;56.274;43.980;2022-11-23T15:03:27;98923.16;;;-3.41;84.48
69982;BME280;57319;56.274;43.980;2022-11-23T15:06:11;98924.00;;;-3.40;84.66
69982;BME280;57319;56.274;43.980;2022-11-23T15:08:51;98925.63;;;-3.42;84.35
69982;BME280;57319;56.274;43.980;2022-11-23T15:11:23;98923.78;;;-3.48;84.36
69982;BME280;57319;56.274;43.980;2022-11-23T15:13:53;98932.03;;;-3.52;84.32
69982;BME280;57319;56.274;43.980;2022-11-23T15:16:22;98938.66;;;-3.55;84.41
69982;BME280;57319;56.274;43.980;2022-11-23T15:18:47;98931.00;;;-3.59;84.10
69982;BME280;57319;56.274;43.980;2022-11-23T15:21:26;98940.28;;;-3.56;84.22
69982;BME280;57319;56.274;43.980;2022-11-23T15:23:54;98946.19;;;-3.55;84.14
69982;BME280;57319;56.274;43.980;2022-11-23T15:28:47;98946.38;;;-3.49;84.20
69982;BME280;57319;56.274;43.980;2022-11-23T15:33:57;98952.78;;;-3.59;83.93
69982;BME280;57319;56.274;43.980;2022-11-23T15:36:32;98953.53;;;-3.62;84.44
69982;BME280;57319;56.274;43.980;2022-11-23T15:39:00;98952.03;;;-3.56;83.76
69982;BME280;57319;56.274;43.980;2022-11-23T15:41:27;98956.22;;;-3.57;84.11
69982;BME280;57319;56.274;43.980;2022-11-23T15:43:56;98953.66;;;-3.59;84.04
69982;BME280;57319;56.274;43.980;2022-11-23T15:46:24;98959.56;;;-3.56;84.00
69982;BME280;57319;56.274;43.980;2022-11-23T15:48:52;98957.91;;;-3.56;83.88
69982;BME280;57319;56.274;43.980;2022-11-23T15:51:27;98961.22;;;-3.59;83.62
69982;BME280;57319;56.274;43.980;2022-11-23T15:53:54;98959.28;;;-3.66;83.51
69982;BME280;57319;56.274;43.980;2022-11-23T15:56:34;98953.06;;;-3.77;83.21
69982;BME280;57319;56.274;43.980;2022-11-23T15:59:31;98960.03;;;-3.68;83.74
69982;BME280;57319;56.274;43.980;2022-11-23T16:01:59;98962.72;;;-3.64;83.54
69982;BME280;57319;56.274;43.980;2022-11-23T16:04:39;98961.00;;;-3.65;83.05
69982;BME280;57319;56.274;43.980;2022-11-23T16:07:21;98966.03;;;-3.65;83.03
69982;BME280;57319;56.274;43.980;2022-11-23T16:09:49;98966.75;;;-3.69;83.19
69982;BME280;57319;56.274;43.980;2022-11-23T16:12:24;98970.00;;;-3.71;82.97
69982;BME280;57319;56.274;43.980;2022-11-23T16:14:52;98974.91;;;-3.76;83.50
69982;BME280;57319;56.274;43.980;2022-11-23T16:17:23;98985.00;;;-3.75;83.52
69982;BME280;57319;56.274;43.980;2022-11-23T16:19:55;98978.22;;;-3.77;83.17
69982;BME280;57319;56.274;43.980;2022-11-23T16:22:25;98985.72;;;-3.79;83.87
69982;BME280;57319;56.274;43.980;2022-11-23T16:25:00;98990.03;;;-3.75;83.75
69982;BME280;57319;56.274;43.980;2022-11-23T16:27:30;98985.56;;;-3.83;83.17
69982;BME280;57319;56.274;43.980;2022-11-23T16:29:55;98994.75;;;-3.84;83.20
69982;BME280;57319;56.274;43.980;2022-11-23T16:32:30;98988.66;;;-3.90;83.36
69982;BME280;57319;56.274;43.980;2022-11-23T16:35:05;98998.78;;;-3.89;83.07
69982;BME280;57319;56.274;43.980;2022-11-23T16:37:33;98999.56;;;-3.92;83.20
69982;BME280;57319;56.274;43.980;2022-11-23T16:39:59;98998.53;;;-3.97;83.03
69982;BME280;57319;56.274;43.980;2022-11-23T16:42:24;98999.34;;;-3.98;82.90
69982;BME280;57319;56.274;43.980;2022-11-23T16:44:51;99009.13;;;-4.05;82.63
69982;BME280;57319;56.274;43.980;2022-11-23T16:47:22;99000.84;;;-4.03;83.04
69982;BME280;57319;56.274;43.980;2022-11-23T16:49:48;99010.59;;;-4.12;82.65
69982;BME280;57319;56.274;43.980;2022-11-23T16:52:14;99005.56;;;-4.12;82.49
69982;BME280;57319;56.274;43.980;2022-11-23T16:54:40;99002.97;;;-4.14;82.81
69982;BME280;57319;56.274;43.980;2022-11-23T16:57:05;99007.97;;;-4.15;82.80
69982;BME280;57319;56.274;43.980;2022-11-23T16:59:31;99001.16;;;-4.18;81.84
69982;BME280;57319;56.274;43.980;2022-11-23T17:01:58;99004.94;;;-4.31;81.42
69982;BME280;57319;56.274;43.980;2022-11-23T17:04:23;99003.06;;;-4.36;82.02
69982;BME280;57319;56.274;43.980;2022-11-23T17:06:49;99012.13;;;-4.40;81.39
69982;BME280;57319;56.274;43.980;2022-11-23T17:09:14;99015.13;;;-4.50;81.50
69982;BME280;57319;56.274;43.980;2022-11-23T17:11:42;99014.34;;;-4.49;81.71
69982;BME280;57319;56.274;43.980;2022-11-23T17:14:13;99018.84;;;-4.40;82.33
69982;BME280;57319;56.274;43.980;2022-11-23T17:16:40;99028.97;;;-4.37;82.14
69982;BME280;57319;56.274;43.980;2022-11-23T17:19:17;99018.03;;;-4.39;82.07
69982;BME280;57319;56.274;43.980;2022-11-23T17:21:43;99035.25;;;-4.50;81.69
69982;BME280;57319;56.274;43.980;2022-11-23T17:24:09;99030.91;;;-4.54;81.60
69982;BME280;57319;56.274;43.980;2022-11-23T17:26:44;99029.88;;;-4.60;81.37
69982;BME280;57319;56.274;43.980;2022-11-23T17:29:15;99026.28;;;-4.66;82.09
69982;BME280;57319;56.274;43.980;2022-11-23T17:31:43;99029.59;;;-4.67;81.74
69982;BME280;57319;56.274;43.980;2022-11-23T17:34:11;99034.75;;;-4.64;82.82
69982;BME280;57319;56.274;43.980;2022-11-23T17:36:36;99032.19;;;-4.66;82.35
69982;BME280;57319;56.274;43.980;2022-11-23T17:39:02;99034.69;;;-4.66;81.92
69982;BME280;57319;56.274;43.980;2022-11-23T17:41:28;99039.56;;;-4.69;81.87
69982;BME280;57319;56.274;43.980;2022-11-23T17:43:53;99032.91;;;-4.68;81.84
69982;BME280;57319;56.274;43.980;2022-11-23T17:46:22;99033.66;;;-4.71;81.37
69982;BME280;57319;56.274;43.980;2022-11-23T17:48:57;99042.63;;;-4.78;80.57
69982;BME280;57319;56.274;43.980;2022-11-23T17:51:24;99049.53;;;-4.95;80.30
69982;BME280;57319;56.274;43.980;2022-11-23T17:53:49;99045.09;;;-5.00;81.17
69982;BME280;57319;56.274;43.980;2022-11-23T17:56:21;99050.94;;;-5.01;80.79
69982;BME280;57319;56.274;43.980;2022-11-23T17:58:48;99055.75;;;-5.06;80.97
69982;BME280;57319;56.274;43.980;2022-11-23T18:01:15;99048.13;;;-5.09;80.83
69982;BME280;57319;56.274;43.980;2022-11-23T18:03:42;99055.66;;;-5.09;81.05
69982;BME280;57319;56.274;43.980;2022-11-23T18:06:12;99050.41;;;-5.15;80.72
69982;BME280;57319;56.274;43.980;2022-11-23T18:08:38;99052.84;;;-5.17;81.17
69982;BME280;57319;56.274;43.980;2022-11-23T18:11:04;99053.66;;;-5.18;81.20
69982;BME280;57319;56.274;43.980;2022-11-23T18:13:29;99054.81;;;-5.09;81.61
69982;BME280;57319;56.274;43.980;2022-11-23T18:15:55;99054.81;;;-5.09;81.14
69982;BME280;57319;56.274;43.980;2022-11-23T18:18:21;99061.53;;;-5.08;81.58
69982;BME280;57319;56.274;43.980;2022-11-23T18:20:48;99053.16;;;-5.09;81.08
69982;BME280;57319;56.274;43.980;2022-11-23T18:23:13;99053.09;;;-5.11;80.74
69982;BME280;57319;56.274;43.980;2022-11-23T18:25:39;99063.25;;;-5.07;81.14
69982;BME280;57319;56.274;43.980;2022-11-23T18:28:04;99063.06;;;-5.12;80.73
69982;BME280;57319;56.274;43.980;2022-11-23T18:30:30;99068.88;;;-5.13;81.03
69982;BME280;57319;56.274;43.980;2022-11-23T18:32:56;99062.03;;;-5.17;80.37
69982;BME280;57319;56.274;43.980;2022-11-23T18:35:22;99064.00;;;-5.31;80.21
69982;BME280;57319;56.274;43.980;2022-11-23T18:37:47;99068.97;;;-5.33;80.57
69982;BME280;57319;56.274;43.980;2022-11-23T18:40:13;99072.94;;;-5.38;80.74
69982;BME280;57319;56.274;43.980;2022-11-23T18:42:39;99072.81;;;-5.41;81.28
69982;BME280;57319;56.274;43.980;2022-11-23T18:45:05;99062.13;;;-5.37;80.72
69982;BME280;57319;56.274;43.980;2022-11-23T18:47:33;99075.50;;;-5.36;80.61
69982;BME280;57319;56.274;43.980;2022-11-23T18:49:58;99075.38;;;-5.39;80.22
69982;BME280;57319;56.274;43.980;2022-11-23T18:52:24;99070.59;;;-5.33;80.42
69982;BME280;57319;56.274;43.980;2022-11-23T18:54:49;99075.44;;;-5.38;80.41
69982;BME280;57319;56.274;43.980;2022-11-23T18:57:15;99077.78;;;-5.42;79.81
69982;BME280;57319;56.274;43.980;2022-11-23T18:59:41;99084.44;;;-5.43;79.71
69982;BME280;57319;56.274;43.980;2022-11-23T19:02:10;99077.47;;;-5.50;79.38
69982;BME280;57319;56.274;43.980;2022-11-23T19:04:36;99089.22;;;-5.49;79.83
69982;BME280;57319;56.274;43.980;2022-11-23T19:07:03;99085.47;;;-5.59;79.67
69982;BME280;57319;56.274;43.980;2022-11-23T19:09:29;99092.84;;;-5.62;79.73
69982;BME280;57319;56.274;43.980;2022-11-23T19:11:55;99096.22;;;-5.62;79.19
69982;BME280;57319;56.274;43.980;2022-11-23T19:14:21;99094.63;;;-5.59;79.63
69982;BME280;57319;56.274;43.980;2022-11-23T19:16:46;99097.34;;;-5.55;80.22
69982;BME280;57319;56.274;43.980;2022-11-23T19:19:12;99094.56;;;-5.61;79.52
69982;BME280;57319;56.274;43.980;2022-11-23T19:21:37;99098.41;;;-5.69;80.02
69982;BME280;57319;56.274;43.980;2022-11-23T19:24:04;99101.59;;;-5.73;79.06
69982;BME280;57319;56.274;43.980;2022-11-23T19:26:30;99106.47;;;-5.76;79.06
69982;BME280;57319;56.274;43.980;2022-11-23T19:28:56;99106.66;;;-5.72;79.68
69982;BME280;57319;56.274;43.980;2022-11-23T19:31:27;99107.88;;;-5.83;79.02
69982;BME280;57319;56.274;43.980;2022-11-23T19:33:58;99121.72;;;-5.91;79.08
69982;BME280;57319;56.274;43.980;2022-11-23T19:36:25;99118.84;;;-6.01;79.63
69982;BME280;57319;56.274;43.980;2022-11-23T19:38:54;99120.63;;;-5.98;80.24
69982;BME280;57319;56.274;43.980;2022-11-23T19:41:20;99125.06;;;-5.91;79.37
69982;BME280;57319;56.274;43.980;2022-11-23T19:43:51;99130.84;;;-5.93;79.75
69982;BME280;57319;56.274;43.980;2022-11-23T19:46:17;99134.84;;;-5.97;79.27
69982;BME280;57319;56.274;43.980;2022-11-23T19:48:43;99129.06;;;-5.96;79.84
69982;BME280;57319;56.274;43.980;2022-11-23T19:51:13;99139.13;;;-5.94;80.02
69982;BME280;57319;56.274;43.980;2022-11-23T19:53:39;99144.16;;;-5.94;79.85
69982;BME280;57319;56.274;43.980;2022-11-23T19:56:11;99140.72;;;-5.97;79.14
69982;BME280;57319;56.274;43.980;2022-11-23T19:58:38;99147.28;;;-6.00;79.10
69982;BME280;57319;56.274;43.980;2022-11-23T20:01:13;99148.06;;;-6.01;79.37
69982;BME280;57319;56.274;43.980;2022-11-23T20:03:40;99151.47;;;-5.99;78.80
69982;BME280;57319;56.274;43.980;2022-11-23T20:06:10;99149.72;;;-6.02;78.42
69982;BME280;57319;56.274;43.980;2022-11-23T20:08:37;99152.25;;;-6.02;78.82
69982;BME280;57319;56.274;43.980;2022-11-23T20:11:13;99149.69;;;-6.21;78.65
69982;BME280;57319;56.274;43.980;2022-11-23T20:13:40;99158.28;;;-6.16;78.66
69982;BME280;57319;56.274;43.980;2022-11-23T20:16:11;99159.34;;;-6.11;79.35
69982;BME280;57319;56.274;43.980;2022-11-23T20:18:37;99159.41;;;-6.09;78.62
69982;BME280;57319;56.274;43.980;2022-11-23T20:21:08;99165.19;;;-6.10;78.59
69982;BME280;57319;56.274;43.980;2022-11-23T20:23:34;99170.00;;;-6.15;79.73
69982;BME280;57319;56.274;43.980;2022-11-23T20:25:59;99172.41;;;-6.18;78.68
69982;BME280;57319;56.274;43.980;2022-11-23T20:28:25;99165.31;;;-6.27;78.93
69982;BME280;57319;56.274;43.980;2022-11-23T20:30:50;99172.75;;;-6.28;79.29
69982;BME280;57319;56.274;43.980;2022-11-23T20:33:16;99173.59;;;-6.28;79.81
69982;BME280;57319;56.274;43.980;2022-11-23T20:35:44;99176.97;;;-6.27;79.46
69982;BME280;57319;56.274;43.980;2022-11-23T20:38:10;99179.25;;;-6.32;78.62
69982;BME280;57319;56.274;43.980;2022-11-23T20:40:36;99178.16;;;-6.39;79.25
69982;BME280;57319;56.274;43.980;2022-11-23T20:43:02;99168.63;;;-6.46;79.18
69982;BME280;57319;56.274;43.980;2022-11-23T20:45:28;99182.22;;;-6.41;79.74
69982;BME280;57319;56.274;43.980;2022-11-23T20:47:54;99180.50;;;-6.42;79.08
69982;BME280;57319;56.274;43.980;2022-11-23T20:50:24;99176.44;;;-6.40;79.43
69982;BME280;57319;56.274;43.980;2022-11-23T20:52:59;99191.66;;;-6.35;79.33
69982;BME280;57319;56.274;43.980;2022-11-23T20:55:25;99192.16;;;-6.42;79.03
69982;BME280;57319;56.274;43.980;2022-11-23T20:57:52;99195.19;;;-6.50;78.94
69982;BME280;57319;56.274;43.980;2022-11-23T21:00:19;99197.53;;;-6.53;78.95
69982;BME280;57319;56.274;43.980;2022-11-23T21:02:52;99206.25;;;-6.44;79.20
69982;BME280;57319;56.274;43.980;2022-11-23T21:05:19;99204.63;;;-6.44;79.14
69982;BME280;57319;56.274;43.980;2022-11-23T21:07:45;99211.25;;;-6.44;78.71
69982;BME280;57319;56.274;43.980;2022-11-23T21:10:12;99203.97;;;-6.40;78.92
69982;BME280;57319;56.274;43.980;2022-11-23T21:12:58;99210.53;;;-6.42;78.82
69982;BME280;57319;56.274;43.980;2022-11-23T21:15:42;99219.00;;;-6.40;78.91
69982;BME280;57319;56.274;43.980;2022-11-23T21:18:09;99211.56;;;-6.38;79.24
69982;BME280;57319;56.274;43.980;2022-11-23T21:20:35;99215.72;;;-6.39;78.56
69982;BME280;57319;56.274;43.980;2022-11-23T21:23:00;99213.84;;;-6.43;78.90
69982;BME280;57319;56.274;43.980;2022-11-23T21:25:26;99214.50;;;-6.47;78.69
69982;BME280;57319;56.274;43.980;2022-11-23T21:27:51;99220.56;;;-6.42;79.36
69982;BME280;57319;56.274;43.980;2022-11-23T21:30:17;99232.22;;;-6.42;78.82
69982;BME280;57319;56.274;43.980;2022-11-23T21:32:43;99225.75;;;-6.39;78.78
69982;BME280;57319;56.274;43.980;2022-11-23T21:35:08;99231.59;;;-6.38;78.70
69982;BME280;57319;56.274;43.980;2022-11-23T21:37:34;99230.56;;;-6.42;78.35
69982;BME280;57319;56.274;43.980;2022-11-23T21:39:59;99234.88;;;-6.39;78.06
69982;BME280;57319;56.274;43.980;2022-11-23T21:42:25;99239.88;;;-6.39;78.75
69982;BME280;57319;56.274;43.980;2022-11-23T21:44:51;99238.03;;;-6.43;78.28
69982;BME280;57319;56.274;43.980;2022-11-23T21:47:17;99237.19;;;-6.44;77.40
69982;BME280;57319;56.274;43.980;2022-11-23T21:49:42;99238.59;;;-6.49;77.66
69982;BME280;57319;56.274;43.980;2022-11-23T21:52:08;99239.03;;;-6.58;78.42
69982;BME280;57319;56.274;43.980;2022-11-23T21:54:34;99235.72;;;-6.57;77.74
69982;BME280;57319;56.274;43.980;2022-11-23T21:56:59;99240.19;;;-6.51;77.97
69982;BME280;57319;56.274;43.980;2022-11-23T21:59:25;99243.53;;;-6.51;78.09
69982;BME280;57319;56.274;43.980;2022-11-23T22:01:53;99240.03;;;-6.54;79.46
69982;BME280;57319;56.274;43.980;2022-11-23T22:04:21;99245.09;;;-6.53;79.12
69982;BME280;57319;56.274;43.980;2022-11-23T22:06:47;99248.34;;;-6.55;78.55
69982;BME280;57319;56.274;43.980;2022-11-23T22:09:13;99243.88;;;-6.61;78.40
69982;BME280;57319;56.274;43.980;2022-11-23T22:11:41;99248.03;;;-6.61;78.84
69982;BME280;57319;56.274;43.980;2022-11-23T22:14:14;99245.59;;;-6.78;78.38
69982;BME280;57319;56.274;43.980;2022-11-23T22:16:42;99254.19;;;-6.73;78.98
69982;BME280;57319;56.274;43.980;2022-11-23T22:19:12;99252.31;;;-6.77;78.35
69982;BME280;57319;56.274;43.980;2022-11-23T22:21:40;99253.03;;;-6.79;78.75
69982;BME280;57319;56.274;43.980;2022-11-23T22:24:09;99250.59;;;-6.78;79.07
69982;BME280;57319;56.274;43.980;2022-11-23T22:26:35;99249.09;;;-6.74;78.70
69982;BME280;57319;56.274;43.980;2022-11-23T22:29:02;99260.91;;;-6.72;79.37
69982;BME280;57319;56.274;43.980;2022-11-23T22:31:30;99255.81;;;-6.73;79.05
69982;BME280;57319;56.274;43.980;2022-11-23T22:34:01;99251.88;;;-6.68;78.75
69982;BME280;57319;56.274;43.980;2022-11-23T22:36:27;99244.44;;;-6.67;79.14
69982;BME280;57319;56.274;43.980;2022-11-23T22:38:58;99252.97;;;-6.63;79.27
69982;BME280;57319;56.274;43.980;2022-11-23T22:41:25;99262.03;;;-6.65;77.75
69982;BME280;57319;56.274;43.980;2022-11-23T22:43:54;99257.59;;;-6.71;78.35
69982;BME280;57319;56.274;43.980;2022-11-23T22:46:21;99260.03;;;-6.72;78.34
69982;BME280;57319;56.274;43.980;2022-11-23T22:48:49;99263.31;;;-6.73;78.74
69982;BME280;57319;56.274;43.980;2022-11-23T22:51:20;99266.75;;;-6.71;79.06
69982;BME280;57319;56.274;43.980;2022-11-23T22:53:46;99272.78;;;-6.68;78.61
69982;BME280;57319;56.274;43.980;2022-11-23T22:56:17;99278.34;;;-6.73;78.83
69982;BME280;57319;56.274;43.980;2022-11-23T22:58:43;99272.47;;;-6.74;78.41
69982;BME280;57319;56.274;43.980;2022-11-23T23:03:36;99285.94;;;-6.72;78.78
69982;BME280;57319;56.274;43.980;2022-11-23T23:06:03;99293.09;;;-6.61;78.51
69982;BME280;57319;56.274;43.980;2022-11-23T23:08:29;99297.72;;;-6.69;77.94